Guanajuato, Mexico

11:41 AM CST on February 11, 2016 (GMT -0600)
De Guanajuato International | | Change Station
CLOSE
Current Station
Airport
Location: Del Bajio,
Elevation: 5968 ft
Nearby Weather Stations

Elev 5968 ft 20.99 °N, 101.48 °W | Updated 58 minutes ago

Clear
Clear
61 °F
Feels Like 61 °F
N
2
Wind Variable Wind from North

Today
High -- | Low -- °F
--% Chance of Precip.
Yesterday
High -- | Low -- °F
Precip. -- in
Pressure 30.43 in
Visibility 10.0 miles
Clouds Clear
Dew Point 34 °F
Humidity 36%
Rainfall 0.00 in
Snow Depth Not available.
7:17 AM 6:41 PM
Waxing Crescent, 13% visible
METAR MMLO 111643Z 35002KT 10SM SKC 16/01 A3043
Pressure 30.43 in
Visibility 10.0 miles
Clouds Clear
Dew Point 34 °F
Humidity 36%
Rainfall 0.00 in
Snow Depth Not available.
7:17 AM 6:41 PM
Waxing Crescent, 13% visible
METAR MMLO 111643Z 35002KT 10SM SKC 16/01 A3043

10-Day Weather Forecast

No radar image for this location.
×

Almanac

Astronomy

Feb. 11, 2016 Rise Set
Actual Time
Civil Twilight
Nautical Twilight
Astronomical Twilight
Moon
Length of Visible Light
Length of Day
Tomorrow will be .
, % of the Moon is Illuminated

Today's Extremes

Country Highs Country Lows

Community

WunderPhotos

Upload Photos

1,892,113 photos uploaded!

WunderBlog® & News

Nearby

Air Quality

  Air Quality AQ Index Pollutant
Not available.

Snow Depth

Station Depth Elevation

Earthquake Activity

City Distance Mag. Time & Date
Minimum magnitude displayed is 2.5.

Coastal Water Temperatures

Place Temperature

Stations

Nearby Weather Stations

Station Location Temp. Windchill Dew Point Humidity Wind Precip. Elev Updated Type